Lourdes, Canada
Current Conditions -  °F | °C
As of 12:00 PM on Wednesday 22 Oct 2014 (Local Time) from CYJT Reporting Station
Broken Clouds Broken Clouds  
Wind Chill: 44°   Ceiling: 2500
Heat Index: 46°   Visibility: 15mi
Dew Point: 41°   Wind: 5mph
Humidity: 81%   Direction: 160°SSE
Pressure: 30.47"   Gusts: NA
Location:  48.65°N, 58.98°W
Report Text: CYJT 221400Z 16004KT 15SM FEW014 BKN025 BKN080 BKN220 08/05 A3047 RMK SC2SC3AC1CI1 SLP317
Loading
Personal Weather Stations






























Interactive Weather Map
Tropical Storm Tracking
New forecast layout! Learn more

10-Day Weather Forecast

Advertisements
Track Severe Weather on mobile